createdAt,value
2022-11-26T00:00:13.152Z,17.4
2022-11-26T00:02:17.210Z,15.9
2022-11-26T00:04:05.634Z,17.5
2022-11-26T00:06:18.831Z,16
2022-11-26T00:08:16.051Z,17.5
2022-11-26T00:10:13.659Z,16.9
2022-11-26T00:12:15.404Z,15.7
2022-11-26T00:14:12.067Z,16.4
2022-11-26T00:16:04.758Z,16.8
2022-11-26T00:18:04.014Z,18.8
2022-11-26T00:20:04.732Z,22.2
2022-11-26T00:22:03.606Z,17.9
2022-11-26T00:24:03.994Z,19.3
2022-11-26T00:26:03.884Z,17.7
2022-11-26T00:28:02.826Z,21.5
2022-11-26T00:30:13.195Z,16.9
2022-11-26T00:32:02.908Z,20.6
2022-11-26T00:34:01.939Z,19.5
2022-11-26T00:36:05.722Z,19.5
2022-11-26T00:38:02.234Z,19.5
2022-11-26T00:40:01.723Z,17.7
2022-11-26T00:42:01.069Z,19.1
2022-11-26T00:44:01.499Z,22
2022-11-26T00:46:00.657Z,20.1
2022-11-26T00:48:00.389Z,18
2022-11-26T00:50:00.064Z,19.9
2022-11-26T00:51:59.916Z,18.9
2022-11-26T00:54:01.956Z,22.5
2022-11-26T00:55:59.330Z,20.7
2022-11-26T00:58:00.039Z,22.3
2022-11-26T00:59:58.836Z,21.4
2022-11-26T01:01:58.749Z,18.5
2022-11-26T01:03:58.435Z,20.2
2022-11-26T01:05:58.547Z,20.1
2022-11-26T01:08:00.518Z,22.4
2022-11-26T01:09:57.699Z,21.6
2022-11-26T01:11:57.433Z,21.6
2022-11-26T01:13:57.178Z,21.5
2022-11-26T01:15:59.323Z,20.5
2022-11-26T01:17:57.235Z,20.7
2022-11-26T01:19:56.422Z,18.2
2022-11-26T01:21:56.238Z,20.8
2022-11-26T01:23:56.645Z,22.1
2022-11-26T01:25:55.715Z,22.4
2022-11-26T01:27:55.513Z,23
2022-11-26T01:29:55.491Z,22.7
2022-11-26T01:31:55.353Z,23.6
2022-11-26T01:33:55.880Z,23.8
2022-11-26T01:35:54.531Z,19.8
2022-11-26T01:37:54.520Z,23.2
2022-11-26T01:39:54.054Z,21.8
2022-11-26T01:42:01.716Z,21.8
2022-11-26T01:43:57.688Z,19.5
2022-11-26T01:45:54.061Z,19.3
2022-11-26T01:47:53.102Z,20.2
2022-11-26T01:50:25.295Z,21.5
2022-11-26T01:52:00.637Z,20.6
2022-11-26T01:53:56.221Z,18.4
2022-11-26T01:55:56.875Z,25.5
2022-11-26T01:57:52.028Z,22.6
2022-11-26T01:59:54.511Z,23.5
2022-11-26T02:01:53.250Z,22.6
2022-11-26T02:03:59.612Z,20.1
2022-11-26T02:05:58.574Z,15.4
2022-11-26T02:07:52.125Z,21.4
2022-11-26T02:09:50.294Z,21.3
2022-11-26T02:11:50.250Z,20.8
2022-11-26T02:13:53.493Z,20.1
2022-11-26T02:15:57.364Z,20.6
2022-11-26T02:17:54.714Z,16.6
2022-11-26T02:20:18.429Z,19.8
2022-11-26T02:21:55.476Z,18.6
2022-11-26T02:24:12.452Z,18.3
2022-11-26T02:26:07.737Z,18.3
2022-11-26T02:28:06.530Z,21.3
2022-11-26T02:30:02.303Z,18.8
2022-11-26T02:31:54.736Z,22.3
2022-11-26T02:33:52.878Z,18.8
2022-11-26T02:35:50.853Z,18.2
2022-11-26T02:37:52.827Z,20.7
2022-11-26T02:39:46.968Z,15
2022-11-26T02:41:48.966Z,15
2022-11-26T02:43:47.078Z,17.1
2022-11-26T02:45:49.680Z,15.5
2022-11-26T02:47:49.985Z,16.3
2022-11-26T02:49:49.460Z,18.4
2022-11-26T02:51:48.821Z,19.9
2022-11-26T02:53:47.256Z,14.6
2022-11-26T02:55:50.096Z,17.5
2022-11-26T02:57:48.857Z,14
2022-11-26T02:59:45.811Z,14.9
2022-11-26T03:01:49.614Z,13.5
2022-11-26T03:03:48.274Z,14.8
2022-11-26T03:05:43.857Z,14.3
2022-11-26T03:07:46.100Z,12.3
2022-11-26T03:09:53.815Z,13
2022-11-26T03:11:43.198Z,11.5
2022-11-26T03:13:42.937Z,13.8
2022-11-26T03:15:42.856Z,13.2
2022-11-26T03:17:42.312Z,12
2022-11-26T03:19:42.973Z,10.2
2022-11-26T03:21:41.841Z,12
2022-11-26T03:23:41.522Z,10.9
2022-11-26T03:25:41.381Z,13
2022-11-26T03:27:40.974Z,13.1
2022-11-26T03:29:40.750Z,11.5
2022-11-26T03:31:40.672Z,9.8
2022-11-26T03:33:40.298Z,11.4
2022-11-26T03:35:40.036Z,8.3
2022-11-26T03:37:39.874Z,11.6
2022-11-26T03:39:39.832Z,12.8
2022-11-26T03:41:39.314Z,10.2
2022-11-26T03:43:38.953Z,8.9
2022-11-26T03:45:38.959Z,9.9
2022-11-26T03:47:38.570Z,8.3
2022-11-26T03:49:38.416Z,9.7
2022-11-26T03:51:38.140Z,9.7
2022-11-26T03:53:37.963Z,11.6
2022-11-26T03:55:37.564Z,6.8
2022-11-26T03:57:37.628Z,9.1
2022-11-26T03:59:37.129Z,10.5
2022-11-26T04:01:36.772Z,11.9
2022-11-26T04:03:36.498Z,10.2
2022-11-26T04:05:36.341Z,11.7
2022-11-26T04:07:36.032Z,11.3
2022-11-26T04:09:35.823Z,12.8
2022-11-26T04:11:35.712Z,11.4
2022-11-26T04:13:35.293Z,11.2
2022-11-26T04:15:35.029Z,9.3
2022-11-26T04:17:34.853Z,10
2022-11-26T04:19:34.537Z,10.1
2022-11-26T04:21:34.406Z,12.6
2022-11-26T04:23:34.629Z,10.8
2022-11-26T04:25:34.011Z,10.9
2022-11-26T04:27:34.084Z,9.8
2022-11-26T04:29:33.312Z,9.7
2022-11-26T04:31:33.183Z,10.9
2022-11-26T04:33:32.886Z,12.6
2022-11-26T04:35:32.699Z,9.4
2022-11-26T04:37:32.576Z,13
2022-11-26T04:39:32.232Z,8.4
2022-11-26T04:41:32.069Z,10.1
2022-11-26T04:43:31.910Z,11.3
2022-11-26T04:45:31.635Z,8.1
2022-11-26T04:47:31.664Z,9.7
2022-11-26T04:49:31.047Z,9.6
2022-11-26T04:51:31.016Z,8.1
2022-11-26T04:53:30.717Z,9.9
2022-11-26T04:55:30.379Z,10.6
2022-11-26T04:57:30.207Z,9.7
2022-11-26T04:59:29.979Z,7.5
2022-11-26T05:01:29.920Z,7.1
2022-11-26T05:03:29.461Z,6.4
2022-11-26T05:05:29.227Z,8.7
2022-11-26T05:07:29.056Z,8.8
2022-11-26T05:09:28.724Z,8.9
2022-11-26T05:11:28.620Z,10.8
2022-11-26T05:13:28.822Z,6.5
2022-11-26T05:15:28.185Z,7.2
2022-11-26T05:17:27.971Z,5.7
2022-11-26T05:19:27.664Z,5.5
2022-11-26T05:21:27.519Z,7.5
2022-11-26T05:23:27.153Z,6.4
2022-11-26T05:25:26.977Z,6.9
2022-11-26T05:27:26.916Z,7.2
2022-11-26T05:29:26.643Z,7.1
2022-11-26T05:31:26.439Z,6.9
2022-11-26T05:33:26.381Z,6.1
2022-11-26T05:35:25.790Z,6.9
2022-11-26T05:37:25.562Z,4.2
2022-11-26T05:39:25.373Z,5
2022-11-26T05:41:25.098Z,5.6
2022-11-26T05:43:25.137Z,5.6
2022-11-26T05:45:24.642Z,6.5
2022-11-26T05:47:24.259Z,7.7
2022-11-26T05:49:24.092Z,5
2022-11-26T05:51:23.893Z,5.6
2022-11-26T05:53:23.621Z,4.9
2022-11-26T05:55:23.414Z,5.2
2022-11-26T05:57:23.085Z,5.1
2022-11-26T05:59:22.814Z,6
2022-11-26T06:01:22.663Z,6
2022-11-26T06:03:22.792Z,5.4
2022-11-26T06:05:22.133Z,4.6
2022-11-26T06:07:21.962Z,5.8
2022-11-26T06:09:21.639Z,5.7
2022-11-26T06:11:21.712Z,5.4
2022-11-26T06:13:21.347Z,5.7
2022-11-26T06:15:20.936Z,6.3
2022-11-26T06:17:20.667Z,6.1
2022-11-26T06:19:20.357Z,5.7
2022-11-26T06:21:20.245Z,6
2022-11-26T06:23:19.999Z,6
2022-11-26T06:25:19.756Z,5.5
2022-11-26T06:27:19.540Z,7
2022-11-26T06:29:22.347Z,6.3
2022-11-26T06:31:19.044Z,5.5
2022-11-26T06:33:19.035Z,7.6
2022-11-26T06:35:18.394Z,5
2022-11-26T06:37:18.199Z,6.1
2022-11-26T06:39:18.037Z,6.2
2022-11-26T06:41:17.666Z,5.6
2022-11-26T06:43:17.348Z,8.7
2022-11-26T06:45:18.108Z,3.9
2022-11-26T06:47:16.863Z,5.3
2022-11-26T06:49:16.760Z,6.2
2022-11-26T06:51:17.532Z,4.7
2022-11-26T06:53:16.234Z,10.5
2022-11-26T06:55:16.114Z,5.7
2022-11-26T06:57:15.659Z,8.9
2022-11-26T06:59:15.419Z,7.1
2022-11-26T07:01:17.401Z,5.9
2022-11-26T07:03:18.569Z,6.6
2022-11-26T07:05:14.898Z,5.9
2022-11-26T07:07:14.595Z,5.9
2022-11-26T07:09:14.506Z,5.9
2022-11-26T07:11:14.126Z,5.3
2022-11-26T07:13:13.692Z,6
2022-11-26T07:15:13.608Z,5.2
2022-11-26T07:17:13.247Z,7.2
2022-11-26T07:19:13.417Z,7.4
2022-11-26T07:21:13.156Z,7.1
2022-11-26T07:23:12.508Z,7.8
2022-11-26T07:25:13.045Z,6.3
2022-11-26T07:27:12.068Z,5.9
2022-11-26T07:29:11.948Z,6.4
2022-11-26T07:31:17.052Z,4.5
2022-11-26T07:33:11.197Z,5
2022-11-26T07:35:11.054Z,5.2
2022-11-26T07:37:10.721Z,8.2
2022-11-26T07:39:11.383Z,6
2022-11-26T07:41:12.738Z,5.3
2022-11-26T07:43:10.060Z,6.5
2022-11-26T07:45:10.563Z,5.4
2022-11-26T07:47:09.518Z,6.1
2022-11-26T07:49:09.333Z,6.5
2022-11-26T07:51:16.085Z,5.6
2022-11-26T07:53:08.711Z,6.9
2022-11-26T07:55:12.469Z,9.2
2022-11-26T07:57:09.513Z,4.4
2022-11-26T07:59:09.722Z,5.3
2022-11-26T08:01:09.550Z,5.3
2022-11-26T08:03:07.419Z,7.3
2022-11-26T08:05:07.511Z,6.5
2022-11-26T08:07:07.080Z,5.3
2022-11-26T08:09:06.690Z,5.4
2022-11-26T08:11:13.044Z,5
2022-11-26T08:13:06.173Z,6.2
2022-11-26T08:15:06.947Z,6.7
2022-11-26T08:17:05.574Z,5.5
2022-11-26T08:19:07.351Z,6.3
2022-11-26T08:21:05.702Z,4.9
2022-11-26T08:23:04.870Z,5
2022-11-26T08:25:05.663Z,6.2
2022-11-26T08:27:04.505Z,7.1
2022-11-26T08:29:04.121Z,6.8
2022-11-26T08:31:06.870Z,5.5
2022-11-26T08:33:04.002Z,6.3
2022-11-26T08:35:03.609Z,7.5
2022-11-26T08:37:03.086Z,7.7
2022-11-26T08:39:03.082Z,8.9
2022-11-26T08:41:04.736Z,8
2022-11-26T08:43:02.387Z,8.2
2022-11-26T08:45:02.061Z,6.6
2022-11-26T08:47:01.762Z,6.8
2022-11-26T08:49:01.500Z,8
2022-11-26T08:51:03.878Z,7.6
2022-11-26T08:53:01.102Z,8.3
2022-11-26T08:55:00.768Z,5.7
2022-11-26T08:57:00.460Z,7.2
2022-11-26T08:59:01.581Z,8.4
2022-11-26T09:01:06.187Z,9.3
2022-11-26T09:02:59.815Z,11.2
2022-11-26T09:04:59.447Z,19.6
2022-11-26T09:06:59.082Z,9.7
2022-11-26T09:09:00.320Z,10.3
2022-11-26T09:10:58.711Z,6.2
2022-11-26T09:12:58.473Z,5.4
2022-11-26T09:14:58.102Z,7.4
2022-11-26T09:16:57.954Z,7.5
2022-11-26T09:18:59.765Z,7.8
2022-11-26T09:21:01.738Z,5.8
2022-11-26T09:22:58.182Z,7.3
2022-11-26T09:24:56.737Z,9.6
2022-11-26T09:26:56.470Z,7.7
2022-11-26T09:28:56.274Z,8.7
2022-11-26T09:30:56.937Z,10.5
2022-11-26T09:32:56.009Z,7.8
2022-11-26T09:34:55.818Z,9.1
2022-11-26T09:36:55.271Z,7.1
2022-11-26T09:38:55.793Z,14.9
2022-11-26T09:41:06.051Z,12.3
2022-11-26T09:43:03.537Z,8.4
2022-11-26T09:45:08.579Z,10.4
2022-11-26T09:47:12.002Z,9.2
2022-11-26T09:48:54.838Z,7.3
2022-11-26T09:51:00.665Z,7.9
2022-11-26T09:52:56.708Z,7.2
2022-11-26T09:55:01.747Z,7.1
2022-11-26T09:56:58.445Z,6.9
2022-11-26T09:58:56.531Z,7.7
2022-11-26T10:00:54.010Z,7.6
2022-11-26T10:02:53.864Z,7.7
2022-11-26T10:04:51.914Z,7.5
2022-11-26T10:07:00.863Z,7.4
2022-11-26T10:09:15.188Z,8.8
2022-11-26T10:10:57.810Z,9.5
2022-11-26T10:14:56.126Z,7.6
2022-11-26T10:17:03.987Z,8
2022-11-26T10:19:01.528Z,12
2022-11-26T10:20:56.974Z,7.3
2022-11-26T10:22:57.119Z,9.9
2022-11-26T10:24:50.377Z,8.1
2022-11-26T10:26:49.764Z,11.1
2022-11-26T10:28:51.977Z,10.2
2022-11-26T10:30:57.727Z,7.8
2022-11-26T10:32:50.732Z,7.4
2022-11-26T10:34:50.592Z,9.5
2022-11-26T10:36:48.161Z,7.2
2022-11-26T10:38:47.501Z,10.5
2022-11-26T10:40:47.340Z,7.7
2022-11-26T10:42:58.030Z,7.3
2022-11-26T10:44:48.511Z,8.6
2022-11-26T10:46:46.676Z,10.7
2022-11-26T10:48:46.314Z,9.1
2022-11-26T10:50:57.626Z,10.6
2022-11-26T10:52:46.210Z,9.5
2022-11-26T10:54:45.782Z,8.3
2022-11-26T10:56:46.495Z,8
2022-11-26T10:58:46.746Z,8.2
2022-11-26T11:00:55.733Z,9
2022-11-26T11:02:48.538Z,8.4
2022-11-26T11:04:48.052Z,10.7
2022-11-26T11:06:44.196Z,9.7
2022-11-26T11:08:44.782Z,10.3
2022-11-26T11:10:54.071Z,10.1
2022-11-26T11:12:48.070Z,8.1
2022-11-26T11:14:44.841Z,11.3
2022-11-26T11:16:43.996Z,12.1
2022-11-26T11:18:53.641Z,10
2022-11-26T11:20:50.799Z,10.6
2022-11-26T11:22:43.618Z,10.2
2022-11-26T11:24:45.651Z,8.7
2022-11-26T11:26:44.036Z,9
2022-11-26T11:28:47.589Z,11
2022-11-26T11:30:42.847Z,10.8
2022-11-26T11:32:41.246Z,9.5
2022-11-26T11:34:41.512Z,8.8
2022-11-26T11:36:40.785Z,11
2022-11-26T11:38:46.783Z,8.1
2022-11-26T11:40:41.307Z,8.3
2022-11-26T11:42:40.232Z,9.1
2022-11-26T11:44:45.142Z,8.4
2022-11-26T11:46:58.014Z,9.8
2022-11-26T11:48:52.594Z,14
2022-11-26T11:50:43.487Z,9.7
2022-11-26T11:52:52.685Z,10.4
2022-11-26T11:54:48.071Z,8.8
2022-11-26T11:56:43.326Z,8.4
2022-11-26T11:58:53.320Z,10.2
2022-11-26T12:00:46.834Z,11
2022-11-26T12:02:54.693Z,10.3
2022-11-26T12:04:55.490Z,13.7
2022-11-26T12:06:44.697Z,10.3
2022-11-26T12:08:48.050Z,11.6
2022-11-26T12:10:46.232Z,9.4
2022-11-26T12:12:40.306Z,12.6
2022-11-26T12:14:41.753Z,13.3
2022-11-26T12:16:42.428Z,10.1
2022-11-26T12:18:44.068Z,13.3
2022-11-26T12:20:41.201Z,12.4
2022-11-26T12:22:40.638Z,11
2022-11-26T12:24:40.348Z,13.1
2022-11-26T12:26:39.524Z,11.4
2022-11-26T12:28:41.593Z,13
2022-11-26T12:30:45.739Z,12.4
2022-11-26T12:32:40.218Z,12.4
2022-11-26T12:34:39.825Z,14.9
2022-11-26T12:36:43.693Z,9.8
2022-11-26T12:38:40.086Z,6.6
2022-11-26T12:40:37.249Z,11.9
2022-11-26T12:42:38.708Z,13.5
2022-11-26T12:44:36.939Z,11.7
2022-11-26T12:46:39.044Z,15.6
2022-11-26T12:48:41.599Z,13
2022-11-26T12:50:41.296Z,16.4
2022-11-26T12:52:40.535Z,13.7
2022-11-26T12:54:38.490Z,16.7
2022-11-26T12:56:38.103Z,17.2
2022-11-26T12:58:50.903Z,11.2
2022-11-26T13:00:36.078Z,13.4
2022-11-26T13:02:34.884Z,15.7
2022-11-26T13:04:49.144Z,17
2022-11-26T13:06:42.672Z,14.5
2022-11-26T13:08:41.629Z,13.2
2022-11-26T13:10:38.611Z,13.2
2022-11-26T13:12:40.738Z,14.1
2022-11-26T13:14:39.980Z,11.3
2022-11-26T13:16:36.099Z,12.2
2022-11-26T13:18:33.554Z,13
2022-11-26T13:20:46.957Z,14.8
2022-11-26T13:22:51.328Z,15.3
2022-11-26T13:24:41.319Z,14.5
2022-11-26T13:26:42.757Z,17.2
2022-11-26T13:28:40.996Z,14.7
2022-11-26T13:30:34.122Z,17.8
2022-11-26T13:32:56.293Z,13.5
2022-11-26T13:34:40.762Z,10.8
2022-11-26T13:36:45.893Z,13
2022-11-26T13:38:35.735Z,16.2
2022-11-26T13:40:58.572Z,14.3
2022-11-26T13:42:40.038Z,13.4
2022-11-26T13:44:49.143Z,14.7
2022-11-26T13:46:28.471Z,17
2022-11-26T13:48:30.776Z,13.6
2022-11-26T13:50:28.935Z,14.9
2022-11-26T13:52:30.746Z,13.3
2022-11-26T13:54:28.189Z,12.8
2022-11-26T13:56:27.387Z,15.8
2022-11-26T13:58:26.778Z,13.9
2022-11-26T14:00:25.157Z,10.5
2022-11-26T14:02:37.327Z,12.8
2022-11-26T14:04:52.580Z,14.1
2022-11-26T14:06:23.279Z,11.6
2022-11-26T14:08:37.424Z,13.8
2022-11-26T14:10:40.062Z,14.8
2022-11-26T14:12:22.741Z,11.9
2022-11-26T14:14:36.588Z,14.1
2022-11-26T14:16:20.760Z,14.6
2022-11-26T14:18:53.793Z,13.1
2022-11-26T14:20:20.057Z,13.6
2022-11-26T14:22:29.211Z,13.4
2022-11-26T14:24:54.446Z,15.6
2022-11-26T14:26:26.408Z,13
2022-11-26T14:28:19.033Z,14.9
2022-11-26T14:30:21.981Z,12.4
2022-11-26T14:32:22.482Z,14.8
2022-11-26T14:34:25.755Z,12.9
2022-11-26T14:36:19.820Z,15.3
2022-11-26T14:38:23.972Z,13.9
2022-11-26T14:40:22.606Z,14.8
2022-11-26T14:42:17.903Z,15.9
2022-11-26T14:44:18.687Z,14.5
2022-11-26T14:46:16.937Z,15
2022-11-26T14:48:24.169Z,13.4
2022-11-26T14:50:19.451Z,17
2022-11-26T14:52:20.094Z,13.8
2022-11-26T14:54:22.123Z,14.9
2022-11-26T14:56:17.862Z,12.3
2022-11-26T14:58:18.195Z,13.7
2022-11-26T15:00:22.371Z,14.5
2022-11-26T15:02:21.031Z,14.8
2022-11-26T15:04:23.687Z,14.2
2022-11-26T15:06:24.502Z,13.8
2022-11-26T15:08:16.489Z,12.5
2022-11-26T15:10:19.029Z,14.5
2022-11-26T15:12:15.544Z,16.2
2022-11-26T15:14:19.620Z,17.1
2022-11-26T15:16:27.296Z,15.8
2022-11-26T15:18:14.661Z,14.7
2022-11-26T15:20:15.695Z,16
2022-11-26T15:22:20.073Z,14.7
2022-11-26T15:24:15.041Z,14.4
2022-11-26T15:26:15.895Z,14.5
2022-11-26T15:28:17.652Z,15.1
2022-11-26T15:30:20.497Z,16.5
2022-11-26T15:32:25.528Z,16.4
2022-11-26T15:34:12.533Z,15.7
2022-11-26T15:36:15.878Z,15.5
2022-11-26T15:38:13.676Z,14.3
2022-11-26T15:40:19.077Z,17
2022-11-26T15:42:26.463Z,16.6
2022-11-26T15:44:20.239Z,17.6
2022-11-26T15:46:14.252Z,16.7
2022-11-26T15:48:27.644Z,15.1
2022-11-26T15:50:23.128Z,14.3
2022-11-26T15:52:10.794Z,15.4
2022-11-26T15:54:19.705Z,17.5
2022-11-26T15:56:07.996Z,16.6
2022-11-26T15:58:10.858Z,15.9
2022-11-26T16:00:20.975Z,16.7
2022-11-26T16:02:17.550Z,14.4
2022-11-26T16:04:27.701Z,14.2
2022-11-26T16:06:07.040Z,19
2022-11-26T16:08:22.794Z,15.9
2022-11-26T16:10:11.334Z,15
2022-11-26T16:12:20.271Z,14.4
2022-11-26T16:14:20.505Z,15.7
2022-11-26T16:16:08.939Z,15.8
2022-11-26T16:18:14.946Z,17.3
2022-11-26T16:20:05.267Z,12
2022-11-26T16:22:05.130Z,10.7
2022-11-26T16:24:06.253Z,15.7
2022-11-26T16:26:09.959Z,15.2
2022-11-26T16:28:06.211Z,14.7
2022-11-26T16:30:13.020Z,16.7
2022-11-26T16:32:02.502Z,13.8
2022-11-26T16:34:06.677Z,15.6
2022-11-26T16:36:08.699Z,16.3
2022-11-26T16:38:01.800Z,14.6
2022-11-26T16:40:03.950Z,15.6
2022-11-26T16:42:00.864Z,15
2022-11-26T16:44:00.713Z,15.2
2022-11-26T16:46:00.512Z,11.8
2022-11-26T16:48:01.034Z,14.9
2022-11-26T16:50:00.335Z,12.8
2022-11-26T16:51:59.491Z,12.8
2022-11-26T16:53:59.232Z,16.3
2022-11-26T16:55:59.668Z,14.8
2022-11-26T16:58:00.336Z,13.6
2022-11-26T17:00:01.812Z,18.4
2022-11-26T17:01:58.117Z,17.3
2022-11-26T17:03:57.814Z,16.7
2022-11-26T17:06:00.697Z,14.8
2022-11-26T17:07:59.465Z,17.8
2022-11-26T17:09:57.016Z,16.7
2022-11-26T17:11:56.707Z,12.5
2022-11-26T17:13:56.388Z,15.6
2022-11-26T17:15:56.330Z,16.4
2022-11-26T17:18:02.386Z,15.5
2022-11-26T17:19:55.661Z,14.3
2022-11-26T17:21:55.214Z,12.8
2022-11-26T17:23:55.336Z,15.4
2022-11-26T17:25:54.956Z,18.1
2022-11-26T17:27:54.352Z,15.9
2022-11-26T17:29:54.149Z,15.2
2022-11-26T17:31:53.823Z,16.4
2022-11-26T17:33:53.521Z,19.4
2022-11-26T17:35:53.547Z,16.1
2022-11-26T17:37:52.983Z,16.3
2022-11-26T17:39:52.980Z,12.6
2022-11-26T17:41:52.498Z,17.9
2022-11-26T17:43:52.107Z,14.3
2022-11-26T17:45:51.824Z,18
2022-11-26T17:47:51.879Z,15.9
2022-11-26T17:49:52.564Z,16.1
2022-11-26T17:51:50.840Z,17.4
2022-11-26T17:53:50.851Z,17.2
2022-11-26T17:55:50.413Z,17.3
2022-11-26T17:57:50.511Z,17.3
2022-11-26T17:59:49.952Z,17.3
2022-11-26T18:01:49.501Z,14.6
2022-11-26T18:03:50.218Z,18.6
2022-11-26T18:05:48.894Z,19.8
2022-11-26T18:07:48.649Z,15.2
2022-11-26T18:09:48.370Z,18.2
2022-11-26T18:11:50.326Z,13.4
2022-11-26T18:13:47.783Z,13.6
2022-11-26T18:15:47.624Z,12.1
2022-11-26T18:17:48.433Z,15
2022-11-26T18:19:47.458Z,12.2
2022-11-26T18:21:49.028Z,15.2
2022-11-26T18:23:46.513Z,13.4
2022-11-26T18:25:46.155Z,12
2022-11-26T18:27:45.923Z,13.9
2022-11-26T18:29:45.680Z,14.4
2022-11-26T18:31:45.420Z,14.1
2022-11-26T18:33:45.222Z,10.3
2022-11-26T18:35:44.767Z,11.4
2022-11-26T18:37:44.525Z,10.4
2022-11-26T18:39:44.255Z,13.7
2022-11-26T18:41:43.896Z,15.7
2022-11-26T18:43:44.383Z,15.3
2022-11-26T18:45:43.404Z,16.5
2022-11-26T18:47:43.304Z,15.6
2022-11-26T18:49:46.266Z,19.5
2022-11-26T18:51:42.471Z,13.2
2022-11-26T18:53:43.746Z,14.5
2022-11-26T18:55:41.941Z,15.4
2022-11-26T18:57:41.763Z,12.6
2022-11-26T18:59:41.981Z,12.8
2022-11-26T19:01:41.351Z,14.4
2022-11-26T19:03:44.138Z,14.5
2022-11-26T19:05:41.471Z,15.6
2022-11-26T19:07:40.541Z,11.4
2022-11-26T19:09:40.579Z,15.2
2022-11-26T19:11:40.319Z,14.4
2022-11-26T19:13:39.524Z,16.9
2022-11-26T19:15:40.607Z,12.4
2022-11-26T19:17:38.975Z,16.4
2022-11-26T19:19:39.055Z,13.8
2022-11-26T19:21:38.388Z,12.3
2022-11-26T19:23:38.063Z,14.5
2022-11-26T19:25:37.748Z,12.8
2022-11-26T19:27:37.508Z,14.7
2022-11-26T19:29:37.352Z,13.3
2022-11-26T19:31:37.457Z,14.3
2022-11-26T19:33:37.740Z,11.6
2022-11-26T19:35:38.630Z,14.8
2022-11-26T19:37:36.171Z,15
2022-11-26T19:39:35.796Z,11.3
2022-11-26T19:41:35.668Z,16.2
2022-11-26T19:43:37.178Z,14.7
2022-11-26T19:45:34.970Z,13.7
2022-11-26T19:47:35.023Z,17.7
2022-11-26T19:49:34.505Z,14.4
2022-11-26T19:51:34.149Z,13.8
2022-11-26T19:53:34.701Z,15.1
2022-11-26T19:55:33.618Z,13.3
2022-11-26T19:57:33.382Z,14.7
2022-11-26T19:59:33.293Z,12.6
2022-11-26T20:01:34.484Z,11.4
2022-11-26T20:03:37.403Z,15.1
2022-11-26T20:05:32.149Z,14.2
2022-11-26T20:07:32.030Z,12.6
2022-11-26T20:09:31.709Z,13.4
2022-11-26T20:11:35.214Z,13.5
2022-11-26T20:13:31.546Z,13.7
2022-11-26T20:15:31.042Z,16.8
2022-11-26T20:17:30.497Z,15.4
2022-11-26T20:19:30.319Z,16.5
2022-11-26T20:21:31.941Z,15.2
2022-11-26T20:23:30.262Z,15.8
2022-11-26T20:25:32.807Z,15.5
2022-11-26T20:27:29.155Z,15.9
2022-11-26T20:29:28.829Z,19.6
2022-11-26T20:31:29.468Z,14.7
2022-11-26T20:33:28.245Z,13.7
2022-11-26T20:35:27.956Z,13.6
2022-11-26T20:37:27.779Z,13.7
2022-11-26T20:39:27.391Z,14.4
2022-11-26T20:41:28.224Z,13
2022-11-26T20:43:26.954Z,14.1
2022-11-26T20:45:26.636Z,13.1
2022-11-26T20:47:26.799Z,16.3
2022-11-26T20:49:30.789Z,14.1
2022-11-26T20:51:25.857Z,14
2022-11-26T20:53:25.489Z,14.6
2022-11-26T20:55:26.064Z,13.8
2022-11-26T20:57:25.038Z,11.5
2022-11-26T20:59:25.033Z,11
2022-11-26T21:01:26.463Z,13.9
2022-11-26T21:03:25.892Z,14.2
2022-11-26T21:05:23.904Z,13.7
2022-11-26T21:07:23.954Z,15.8
2022-11-26T21:09:23.543Z,15.4
2022-11-26T21:11:23.419Z,15.4
2022-11-26T21:13:22.851Z,14.5
2022-11-26T21:15:22.522Z,14.3
2022-11-26T21:17:22.454Z,16.5
2022-11-26T21:19:22.043Z,15.3
2022-11-26T21:21:23.491Z,15.5
2022-11-26T21:23:21.499Z,15.4
2022-11-26T21:25:21.236Z,14.9
2022-11-26T21:27:20.873Z,15.7
2022-11-26T21:29:20.912Z,15
2022-11-26T21:31:21.436Z,15.1
2022-11-26T21:33:20.046Z,17
2022-11-26T21:35:19.876Z,15.9
2022-11-26T21:37:20.005Z,17.4
2022-11-26T21:39:19.374Z,18.4
2022-11-26T21:41:19.810Z,17.6
2022-11-26T21:43:19.422Z,19
2022-11-26T21:45:18.852Z,14.8
2022-11-26T21:47:18.134Z,17.4
2022-11-26T21:49:17.973Z,13.1
2022-11-26T21:51:18.818Z,14.7
2022-11-26T21:53:17.285Z,14.9
2022-11-26T21:55:17.166Z,18.2
2022-11-26T21:57:16.766Z,20
2022-11-26T21:59:16.394Z,17.2
2022-11-26T22:01:19.041Z,18.7
2022-11-26T22:03:15.781Z,14.9
2022-11-26T22:05:15.550Z,21.3
2022-11-26T22:07:15.302Z,20
2022-11-26T22:09:16.467Z,18.6
2022-11-26T22:11:16.585Z,17.3
2022-11-26T22:13:14.379Z,19.5
2022-11-26T22:15:14.053Z,16.8
2022-11-26T22:17:13.864Z,19.5
2022-11-26T22:19:13.669Z,20.1
2022-11-26T22:21:14.952Z,21.1
2022-11-26T22:23:12.968Z,21
2022-11-26T22:25:12.715Z,19.9
2022-11-26T22:27:12.496Z,20.8
2022-11-26T22:29:13.779Z,19
2022-11-26T22:31:16.383Z,17.8
2022-11-26T22:33:11.600Z,15.3
2022-11-26T22:35:11.295Z,16.5
2022-11-26T22:37:11.021Z,20
2022-11-26T22:39:12.433Z,21.9
2022-11-26T22:41:13.443Z,23.3
2022-11-26T22:43:10.541Z,19.4
2022-11-26T22:45:10.595Z,20.5
2022-11-26T22:47:09.686Z,19.5
2022-11-26T22:49:12.994Z,17.9
2022-11-26T22:51:09.579Z,19.4
2022-11-26T22:53:09.485Z,17.9
2022-11-26T22:55:09.515Z,18.7
2022-11-26T22:57:08.235Z,16.8
2022-11-26T22:59:11.071Z,17.4
2022-11-26T23:01:13.804Z,16.4
2022-11-26T23:03:07.577Z,16.1
2022-11-26T23:05:07.905Z,15.3
2022-11-26T23:07:06.996Z,15
2022-11-26T23:09:08.746Z,16.8
2022-11-26T23:11:07.266Z,13.9
2022-11-26T23:13:07.146Z,14.9
2022-11-26T23:15:06.771Z,16.4
2022-11-26T23:17:05.812Z,15.1
2022-11-26T23:19:05.807Z,19.1
2022-11-26T23:21:06.814Z,16.6
2022-11-26T23:23:05.186Z,19.2
2022-11-26T23:25:05.371Z,14
2022-11-26T23:27:04.053Z,13.6
2022-11-26T23:29:05.202Z,14.4
2022-11-26T23:31:06.225Z,14
2022-11-26T23:33:03.351Z,18
2022-11-26T23:35:03.223Z,18.2
2022-11-26T23:37:02.734Z,13.6
2022-11-26T23:39:05.270Z,15.6
2022-11-26T23:41:04.444Z,13.4
2022-11-26T23:43:05.975Z,14.6
2022-11-26T23:45:02.203Z,15.5
2022-11-26T23:47:01.335Z,13.3
2022-11-26T23:49:01.077Z,13.3
2022-11-26T23:51:05.458Z,14.8
2022-11-26T23:53:00.620Z,14.3
2022-11-26T23:55:00.332Z,14.6
2022-11-26T23:56:59.879Z,15.9
2022-11-26T23:59:01.887Z,18
